Time;durP1;ratioP1;P1;durP2;ratioP2;P2;SDS_P1;SDS_P2;PMS_P1;PMS_P2;Temp;Humidity;BMP_temperature;BMP_pressure;BME280_temperature;BME280_humidity;BME280_pressure;Samples;Min_cycle;Max_cycle;Signal;HPM_P1;HPM_P2
2021/12/01 00:01:05;;;;;;;6.45;3.05;;;;;;;;;;5045075;28;20209;-58
2021/12/01 00:03:30;;;;;;;2.95;1.83;;;;;;;;;;5046152;28;20127;-58
2021/12/01 00:05:56;;;;;;;3.63;2.42;;;;;;;;;;5046451;28;20048;-58
2021/12/01 00:08:21;;;;;;;7.03;4.97;;;;;;;;;;5045658;28;20025;-58
2021/12/01 00:10:47;;;;;;;5.57;3.47;;;;;;;;;;5044897;28;20127;-58
2021/12/01 00:13:14;;;;;;;4.22;2.28;;;;;;;;;;5044655;28;20644;-58
2021/12/01 00:15:41;;;;;;;5.28;3.42;;;;;;;;;;5045940;28;20056;-58
2021/12/01 00:18:06;;;;;;;7.00;4.40;;;;;;;;;;5046295;28;20032;-59
2021/12/01 00:20:31;;;;;;;11.35;5.18;;;;;;;;;;5044883;28;20230;-59
2021/12/01 00:22:58;;;;;;;11.50;6.43;;;;;;;;;;5044781;28;20162;-59
2021/12/01 00:25:24;;;;;;;15.50;11.32;;;;;;;;;;5046328;28;20094;-59
2021/12/01 00:27:50;;;;;;;19.77;14.50;;;;;;;;;;5046716;28;20013;-59
2021/12/01 00:30:16;;;;;;;20.05;13.38;;;;;;;;;;5045237;28;20028;-59
2021/12/01 00:32:41;;;;;;;15.75;10.50;;;;;;;;;;5045627;28;20423;-59
2021/12/01 00:35:07;;;;;;;12.25;9.43;;;;;;;;;;5046102;28;20120;-59
2021/12/01 00:37:33;;;;;;;8.93;7.85;;;;;;;;;;5045936;28;20028;-58
2021/12/01 00:39:58;;;;;;;20.17;9.93;;;;;;;;;;5046303;28;20498;-59
2021/12/01 00:42:23;;;;;;;11.43;7.78;;;;;;;;;;5046143;28;20021;-58
2021/12/01 00:44:56;;;;;;;10.93;5.72;;;;;;;;;;5045763;28;20032;-59
2021/12/01 00:47:23;;;;;;;12.55;6.45;;;;;;;;;;5045900;28;20071;-58
2021/12/01 00:49:49;;;;;;;9.45;6.95;;;;;;;;;;5045455;28;20166;-59
2021/12/01 00:52:14;;;;;;;14.02;7.75;;;;;;;;;;5045733;28;20660;-59
2021/12/01 00:54:39;;;;;;;9.75;7.32;;;;;;;;;;5045943;28;20029;-59
2021/12/01 00:57:05;;;;;;;14.57;8.00;;;;;;;;;;5045306;28;20080;-59
2021/12/01 00:59:30;;;;;;;12.57;7.75;;;;;;;;;;5045889;28;20040;-59
2021/12/01 01:01:55;;;;;;;10.63;7.70;;;;;;;;;;5045302;28;20029;-59
2021/12/01 01:04:21;;;;;;;8.25;6.18;;;;;;;;;;5045042;28;20104;-58
2021/12/01 01:06:46;;;;;;;17.63;10.27;;;;;;;;;;5027523;28;20610;-59
2021/12/01 01:09:12;;;;;;;11.60;9.45;;;;;;;;;;5045527;28;20036;-59
2021/12/01 01:17:06;;;;;;;9.57;6.90;;;;;;;;;;5045141;28;20134;-59
2021/12/01 01:19:32;;;;;;;19.02;12.43;;;;;;;;;;5047214;28;20053;-59
2021/12/01 01:21:59;;;;;;;15.82;13.32;;;;;;;;;;5050479;28;20117;-59
2021/12/01 01:24:24;;;;;;;12.30;10.98;;;;;;;;;;5049870;28;20032;-59
2021/12/01 01:26:50;;;;;;;13.85;10.73;;;;;;;;;;5048808;28;20500;-59
2021/12/01 01:29:20;;;;;;;13.80;10.95;;;;;;;;;;5049602;28;20496;-59
2021/12/01 01:31:46;;;;;;;13.25;10.57;;;;;;;;;;5048485;28;20035;-59
2021/12/01 01:34:11;;;;;;;13.30;10.43;;;;;;;;;;5047869;28;20684;-59
2021/12/01 01:36:36;;;;;;;14.75;13.25;;;;;;;;;;5049275;28;20021;-59
2021/12/01 01:39:02;;;;;;;20.85;12.93;;;;;;;;;;5049605;28;20032;-59
2021/12/01 01:41:28;;;;;;;13.48;10.50;;;;;;;;;;5048839;28;20053;-59
2021/12/01 01:43:53;;;;;;;11.70;10.38;;;;;;;;;;5047829;28;20075;-59
2021/12/01 01:46:19;;;;;;;10.35;8.52;;;;;;;;;;5048028;28;20064;-59
2021/12/01 01:48:55;;;;;;;11.52;10.23;;;;;;;;;;5047592;28;20029;-59
2021/12/01 01:51:26;;;;;;;10.65;8.98;;;;;;;;;;5047029;28;20532;-59
2021/12/01 01:53:54;;;;;;;16.17;11.13;;;;;;;;;;5049056;28;20027;-59
2021/12/01 01:56:20;;;;;;;28.48;19.10;;;;;;;;;;5048035;28;20029;-59
2021/12/01 01:58:45;;;;;;;16.25;9.45;;;;;;;;;;5048685;28;20016;-59
2021/12/01 02:01:20;;;;;;;9.63;8.63;;;;;;;;;;5048793;28;20021;-59
2021/12/01 02:03:47;;;;;;;10.88;8.82;;;;;;;;;;5046718;28;20025;-59
2021/12/01 02:06:21;;;;;;;12.68;7.38;;;;;;;;;;5048233;28;20017;-59
2021/12/01 02:08:46;;;;;;;12.98;7.32;;;;;;;;;;5047155;28;20188;-59
2021/12/01 02:11:12;;;;;;;9.27;5.45;;;;;;;;;;5047655;28;20124;-59
2021/12/01 02:13:38;;;;;;;13.80;6.35;;;;;;;;;;5048630;28;20021;-59
2021/12/01 02:16:04;;;;;;;12.25;7.15;;;;;;;;;;5048165;28;20447;-59
2021/12/01 02:18:29;;;;;;;12.48;5.28;;;;;;;;;;5048255;28;20531;-59
2021/12/01 02:21:01;;;;;;;9.40;6.18;;;;;;;;;;5048458;28;20693;-59
2021/12/01 02:23:27;;;;;;;14.45;6.25;;;;;;;;;;5049020;28;20028;-59
2021/12/01 02:25:52;;;;;;;13.20;5.90;;;;;;;;;;5049278;28;20380;-59
2021/12/01 02:28:18;;;;;;;10.63;6.63;;;;;;;;;;5048917;28;20583;-59
2021/12/01 02:30:43;;;;;;;10.00;6.78;;;;;;;;;;5046801;28;20021;-59
2021/12/01 02:33:08;;;;;;;8.48;5.80;;;;;;;;;;5048091;28;20029;-59
2021/12/01 02:35:34;;;;;;;17.08;7.72;;;;;;;;;;5047975;28;20063;-59
2021/12/01 02:38:00;;;;;;;7.47;4.75;;;;;;;;;;5030291;28;20020;-59
2021/12/01 02:40:26;;;;;;;8.32;5.57;;;;;;;;;;5045923;28;20031;-59
2021/12/01 02:42:51;;;;;;;10.13;4.05;;;;;;;;;;5046925;28;20607;-59
2021/12/01 02:45:16;;;;;;;8.73;4.78;;;;;;;;;;5046857;28;20029;-59
2021/12/01 02:47:42;;;;;;;20.42;5.90;;;;;;;;;;5048114;28;20024;-59
2021/12/01 02:50:07;;;;;;;8.82;4.38;;;;;;;;;;5048369;28;20028;-59
2021/12/01 02:52:34;;;;;;;12.55;4.25;;;;;;;;;;5047552;28;20933;-58
2021/12/01 02:55:00;;;;;;;7.03;4.60;;;;;;;;;;5048068;28;20021;-59
2021/12/01 02:57:26;;;;;;;5.93;3.33;;;;;;;;;;5048192;28;20028;-59
2021/12/01 02:59:51;;;;;;;7.57;2.50;;;;;;;;;;5047989;28;20051;-58
2021/12/01 03:02:17;;;;;;;5.28;1.90;;;;;;;;;;5047952;28;20029;-59
2021/12/01 03:04:42;;;;;;;3.03;1.85;;;;;;;;;;5047829;28;20025;-58
2021/12/01 03:07:07;;;;;;;8.25;2.45;;;;;;;;;;5047653;28;20025;-61
2021/12/01 03:09:33;;;;;;;5.80;1.67;;;;;;;;;;5047724;28;20028;-58
2021/12/01 03:11:58;;;;;;;3.95;1.50;;;;;;;;;;5047737;28;20025;-58
2021/12/01 03:14:24;;;;;;;7.07;1.42;;;;;;;;;;5047262;28;20060;-58
2021/12/01 03:16:50;;;;;;;2.60;1.08;;;;;;;;;;5046534;28;20113;-58
2021/12/01 03:19:15;;;;;;;0.82;0.52;;;;;;;;;;5047619;28;20583;-58
2021/12/01 03:21:41;;;;;;;3.30;1.15;;;;;;;;;;5047419;28;20040;-58
2021/12/01 03:24:07;;;;;;;1.58;0.68;;;;;;;;;;5047669;28;20104;-58
2021/12/01 03:26:33;;;;;;;3.40;0.82;;;;;;;;;;5047358;28;20598;-58
2021/12/01 03:28:59;;;;;;;3.90;1.20;;;;;;;;;;5048020;28;20568;-59
2021/12/01 03:31:24;;;;;;;1.95;0.95;;;;;;;;;;5044417;28;20522;-58
2021/12/01 03:33:50;;;;;;;2.88;1.00;;;;;;;;;;5047639;28;20021;-58
2021/12/01 03:36:15;;;;;;;2.03;0.85;;;;;;;;;;5047865;28;20688;-58
2021/12/01 03:38:40;;;;;;;3.80;3.42;;;;;;;;;;5047302;28;20448;-58
2021/12/01 03:41:06;;;;;;;1.17;1.08;;;;;;;;;;5046641;28;20032;-58
2021/12/01 03:43:31;;;;;;;1.73;0.88;;;;;;;;;;5047069;28;20468;-58
2021/12/01 03:45:56;;;;;;;1.73;0.98;;;;;;;;;;5047339;28;20013;-58
2021/12/01 03:48:23;;;;;;;1.23;0.52;;;;;;;;;;5046990;28;20034;-58
2021/12/01 03:50:49;;;;;;;3.90;0.52;;;;;;;;;;5047100;28;20033;-58
2021/12/01 03:53:16;;;;;;;0.52;0.32;;;;;;;;;;5046898;28;20107;-58
2021/12/01 03:55:41;;;;;;;2.05;0.90;;;;;;;;;;5028815;28;20028;-58
2021/12/01 03:58:07;;;;;;;3.40;1.45;;;;;;;;;;5047873;28;20017;-58
2021/12/01 04:00:32;;;;;;;1.52;0.60;;;;;;;;;;5045712;28;20488;-59
2021/12/01 04:02:57;;;;;;;1.77;1.05;;;;;;;;;;5046714;28;20537;-58
2021/12/01 04:05:23;;;;;;;1.23;0.60;;;;;;;;;;5046947;28;20024;-58
2021/12/01 04:07:48;;;;;;;1.50;0.57;;;;;;;;;;5047254;28;20017;-58
2021/12/01 04:10:15;;;;;;;1.42;0.82;;;;;;;;;;5046874;28;20652;-58
2021/12/01 04:12:41;;;;;;;13.18;1.70;;;;;;;;;;5046389;28;20087;-59
2021/12/01 04:15:08;;;;;;;3.97;2.85;;;;;;;;;;5046531;28;20033;-58
2021/12/01 04:17:33;;;;;;;3.05;1.77;;;;;;;;;;5046863;28;20033;-58
2021/12/01 04:19:58;;;;;;;11.90;1.65;;;;;;;;;;5046979;28;20396;-58
2021/12/01 04:22:24;;;;;;;3.47;1.45;;;;;;;;;;5045747;28;20577;-58
2021/12/01 04:24:49;;;;;;;1.92;1.33;;;;;;;;;;5046170;28;20025;-58
2021/12/01 04:27:15;;;;;;;3.30;2.00;;;;;;;;;;5044920;28;20021;-59
2021/12/01 04:29:40;;;;;;;3.97;2.20;;;;;;;;;;5045044;28;20125;-58
2021/12/01 04:32:08;;;;;;;1.60;0.85;;;;;;;;;;5044885;28;20029;-58
2021/12/01 04:34:33;;;;;;;2.35;1.75;;;;;;;;;;5045278;28;20048;-59
2021/12/01 04:36:58;;;;;;;2.17;1.02;;;;;;;;;;5044990;28;20044;-59
2021/12/01 04:39:24;;;;;;;2.35;1.33;;;;;;;;;;5045852;28;20079;-59
2021/12/01 04:41:54;;;;;;;0.47;0.40;;;;;;;;;;5046644;28;20048;-59
2021/12/01 04:44:21;;;;;;;1.03;0.57;;;;;;;;;;5046250;28;20124;-59
2021/12/01 04:46:47;;;;;;;5.07;1.02;;;;;;;;;;5046602;28;20021;-59
2021/12/01 04:49:15;;;;;;;4.43;0.63;;;;;;;;;;5043467;28;20017;-59
2021/12/01 04:51:41;;;;;;;6.65;1.15;;;;;;;;;;5046270;28;20036;-59
2021/12/01 04:54:07;;;;;;;3.50;1.42;;;;;;;;;;5045640;28;20530;-59
2021/12/01 04:56:33;;;;;;;4.18;1.73;;;;;;;;;;5046028;28;20025;-59
2021/12/01 04:58:58;;;;;;;3.90;2.03;;;;;;;;;;5046560;28;20066;-59
2021/12/01 05:01:23;;;;;;;3.63;1.90;;;;;;;;;;5044103;28;20555;-59
2021/12/01 05:03:49;;;;;;;5.22;2.95;;;;;;;;;;5045327;28;20025;-59
2021/12/01 05:06:16;;;;;;;3.50;2.45;;;;;;;;;;5045272;28;20023;-59
2021/12/01 05:08:41;;;;;;;6.63;3.75;;;;;;;;;;5045353;28;20025;-59
2021/12/01 05:11:07;;;;;;;4.38;2.78;;;;;;;;;;5045683;28;20818;-59
2021/12/01 05:13:32;;;;;;;4.97;2.95;;;;;;;;;;5045640;28;20104;-58
2021/12/01 05:15:57;;;;;;;2.92;1.73;;;;;;;;;;5045899;28;20045;-59
2021/12/01 05:18:23;;;;;;;5.00;3.90;;;;;;;;;;5046410;28;20051;-59
2021/12/01 05:20:48;;;;;;;2.70;1.45;;;;;;;;;;5046374;28;20045;-59
2021/12/01 05:23:15;;;;;;;2.97;1.58;;;;;;;;;;5045995;28;20029;-59
2021/12/01 05:25:41;;;;;;;2.42;2.03;;;;;;;;;;5045444;28;20017;-58
2021/12/01 05:28:06;;;;;;;1.70;1.30;;;;;;;;;;5045864;28;20438;-59
2021/12/01 05:30:32;;;;;;;2.88;2.03;;;;;;;;;;5045164;28;20056;-60
2021/12/01 05:33:04;;;;;;;1.75;1.17;;;;;;;;;;5045751;28;20519;-59
2021/12/01 05:35:29;;;;;;;8.57;1.77;;;;;;;;;;5028427;28;20029;-59
2021/12/01 05:37:55;;;;;;;1.02;0.47;;;;;;;;;;5043358;28;20518;-59
2021/12/01 05:40:20;;;;;;;2.63;0.75;;;;;;;;;;5045979;28;20036;-60
2021/12/01 05:42:46;;;;;;;0.55;0.35;;;;;;;;;;5045011;28;20398;-59
2021/12/01 05:45:11;;;;;;;4.00;3.70;;;;;;;;;;5045126;28;20029;-59
2021/12/01 05:47:36;;;;;;;1.67;1.25;;;;;;;;;;5045204;28;20024;-59
2021/12/01 05:50:02;;;;;;;2.67;1.35;;;;;;;;;;5044907;28;20017;-59
2021/12/01 05:52:28;;;;;;;2.15;1.35;;;;;;;;;;5044957;28;20027;-59
2021/12/01 05:54:53;;;;;;;1.63;0.95;;;;;;;;;;5044486;28;20013;-59
2021/12/01 05:57:18;;;;;;;2.25;1.25;;;;;;;;;;5045219;28;20025;-59
2021/12/01 05:59:44;;;;;;;4.00;1.50;;;;;;;;;;5045240;28;20021;-59
2021/12/01 06:02:09;;;;;;;4.53;2.03;;;;;;;;;;5045658;28;20025;-59
2021/12/01 06:04:34;;;;;;;5.75;2.38;;;;;;;;;;5043516;28;20013;-59
2021/12/01 06:07:00;;;;;;;4.63;1.88;;;;;;;;;;5048693;28;20021;-58
2021/12/01 06:09:25;;;;;;;3.53;2.25;;;;;;;;;;5049014;28;20024;-58
2021/12/01 06:11:52;;;;;;;12.10;4.60;;;;;;;;;;5048258;28;20242;-58
2021/12/01 06:14:17;;;;;;;11.48;6.25;;;;;;;;;;5048125;28;20083;-59
2021/12/01 06:16:43;;;;;;;6.28;3.22;;;;;;;;;;5047887;28;20045;-58
2021/12/01 06:19:08;;;;;;;7.35;2.95;;;;;;;;;;5049061;28;20159;-58
2021/12/01 06:21:34;;;;;;;4.88;2.97;;;;;;;;;;5049201;28;20523;-59
2021/12/01 06:23:59;;;;;;;3.47;2.75;;;;;;;;;;5049098;28;20083;-58
2021/12/01 06:26:24;;;;;;;6.05;2.78;;;;;;;;;;5048455;28;20021;-59
2021/12/01 06:28:51;;;;;;;5.50;3.25;;;;;;;;;;5047456;28;20091;-58
2021/12/01 06:31:16;;;;;;;4.15;2.33;;;;;;;;;;5048287;28;20033;-59
2021/12/01 06:33:41;;;;;;;7.50;4.35;;;;;;;;;;5047981;28;20048;-58
2021/12/01 06:36:07;;;;;;;4.70;2.50;;;;;;;;;;5047859;28;20028;-58
2021/12/01 06:38:32;;;;;;;4.60;2.67;;;;;;;;;;5048449;28;20029;-58
2021/12/01 06:40:58;;;;;;;3.90;2.22;;;;;;;;;;5047840;28;20013;-58
2021/12/01 06:43:23;;;;;;;153.50;79.93;;;;;;;;;;5048169;28;20508;-59
2021/12/01 06:45:48;;;;;;;24.63;14.52;;;;;;;;;;5048126;28;20559;-59
2021/12/01 06:48:14;;;;;;;53.90;17.58;;;;;;;;;;5026950;28;20522;-59
2021/12/01 06:50:39;;;;;;;14.73;11.15;;;;;;;;;;5048205;28;20108;-58
2021/12/01 06:53:04;;;;;;;28.80;14.00;;;;;;;;;;5048309;28;20543;-58
2021/12/01 06:55:30;;;;;;;24.23;14.35;;;;;;;;;;5047953;28;20033;-59
2021/12/01 06:57:55;;;;;;;9.88;6.18;;;;;;;;;;5048105;28;20056;-59
2021/12/01 07:00:21;;;;;;;8.77;7.65;;;;;;;;;;5048191;28;20024;-58
2021/12/01 07:02:46;;;;;;;9.18;7.13;;;;;;;;;;5047955;28;20169;-59
2021/12/01 07:05:12;;;;;;;6.82;4.43;;;;;;;;;;5045290;28;20102;-58
2021/12/01 07:07:37;;;;;;;12.60;6.90;;;;;;;;;;5048059;28;20593;-58
2021/12/01 07:10:07;;;;;;;15.52;9.18;;;;;;;;;;5048119;28;20035;-58
2021/12/01 07:12:32;;;;;;;14.00;9.40;;;;;;;;;;5046783;28;20666;-59
2021/12/01 07:14:57;;;;;;;7.15;5.80;;;;;;;;;;5047874;28;20055;-59
2021/12/01 07:17:23;;;;;;;7.25;5.30;;;;;;;;;;5047075;28;20065;-59
2021/12/01 07:19:48;;;;;;;10.05;6.57;;;;;;;;;;5047831;28;20017;-58
2021/12/01 07:22:14;;;;;;;16.70;8.27;;;;;;;;;;5047517;28;20013;-59
2021/12/01 07:24:39;;;;;;;15.13;6.10;;;;;;;;;;5047289;28;20013;-58
2021/12/01 07:27:05;;;;;;;20.15;6.15;;;;;;;;;;5046801;28;20055;-59
2021/12/01 07:29:30;;;;;;;27.92;7.85;;;;;;;;;;5047404;28;20492;-59
2021/12/01 07:31:56;;;;;;;9.68;5.97;;;;;;;;;;5046239;28;20017;-59
2021/12/01 07:34:21;;;;;;;16.27;6.90;;;;;;;;;;5044769;28;20366;-59
2021/12/01 07:36:47;;;;;;;10.63;5.70;;;;;;;;;;5046255;28;20052;-59
2021/12/01 07:39:12;;;;;;;12.90;4.90;;;;;;;;;;5045855;28;20055;-58
2021/12/01 07:41:37;;;;;;;8.68;6.43;;;;;;;;;;5044064;28;20067;-59
2021/12/01 07:44:03;;;;;;;10.88;4.60;;;;;;;;;;5046842;28;20435;-56
2021/12/01 07:46:28;;;;;;;14.82;4.63;;;;;;;;;;5043915;28;20449;-59
2021/12/01 07:48:53;;;;;;;5.95;4.70;;;;;;;;;;5044492;28;20028;-58
2021/12/01 07:51:18;;;;;;;14.10;6.35;;;;;;;;;;5044835;28;20535;-58
2021/12/01 07:53:44;;;;;;;9.35;7.65;;;;;;;;;;5045441;28;20802;-58
2021/12/01 07:56:09;;;;;;;17.77;8.73;;;;;;;;;;5045433;28;20027;-59
2021/12/01 07:58:35;;;;;;;13.13;8.13;;;;;;;;;;5045579;28;20564;-58
2021/12/01 08:01:00;;;;;;;18.23;8.77;;;;;;;;;;5044229;28;20006;-41
2021/12/01 08:03:25;;;;;;;11.45;8.77;;;;;;;;;;5027230;28;20504;-59
2021/12/01 08:05:50;;;;;;;30.77;12.98;;;;;;;;;;5044750;28;20179;-54
2021/12/01 08:08:16;;;;;;;13.95;11.77;;;;;;;;;;5046115;28;20017;-58
2021/12/01 08:10:45;;;;;;;36.97;13.27;;;;;;;;;;5046593;28;20480;-65
2021/12/01 08:13:10;;;;;;;52.58;20.77;;;;;;;;;;5046260;28;20028;-58
2021/12/01 08:15:36;;;;;;;96.88;49.78;;;;;;;;;;5046473;28;20033;-60
2021/12/01 08:18:01;;;;;;;134.20;92.32;;;;;;;;;;5046550;28;20472;-57
2021/12/01 08:20:27;;;;;;;215.38;110.82;;;;;;;;;;5046430;28;20498;-59
2021/12/01 08:22:54;;;;;;;155.68;89.15;;;;;;;;;;5046711;28;20098;-64
2021/12/01 08:25:22;;;;;;;115.95;82.70;;;;;;;;;;5046495;28;20044;-55
2021/12/01 08:27:48;;;;;;;78.05;57.05;;;;;;;;;;5045606;28;20032;-59
2021/12/01 08:30:14;;;;;;;70.20;46.17;;;;;;;;;;5045291;28;20012;-57
2021/12/01 08:32:45;;;;;;;74.57;47.85;;;;;;;;;;5045351;28;20013;-46
2021/12/01 08:35:10;;;;;;;84.53;48.90;;;;;;;;;;5044718;28;20530;-50
2021/12/01 08:37:36;;;;;;;64.50;43.63;;;;;;;;;;5045218;28;20045;-48
2021/12/01 08:40:01;;;;;;;62.72;36.30;;;;;;;;;;5045148;28;20040;-44
2021/12/01 08:42:26;;;;;;;87.90;40.20;;;;;;;;;;5045947;28;20020;-49
2021/12/01 08:44:51;;;;;;;80.05;56.17;;;;;;;;;;5045300;28;20029;-48
2021/12/01 08:47:19;;;;;;;72.63;51.83;;;;;;;;;;5045989;28;20021;-46
2021/12/01 08:49:45;;;;;;;70.65;52.40;;;;;;;;;;5045776;28;20017;-48
2021/12/01 08:52:10;;;;;;;69.15;46.08;;;;;;;;;;5044538;28;20025;-49
2021/12/01 08:54:35;;;;;;;97.55;46.05;;;;;;;;;;5043485;28;20028;-51
2021/12/01 08:57:01;;;;;;;102.80;51.53;;;;;;;;;;5043824;28;20039;-49
2021/12/01 08:59:26;;;;;;;102.95;49.40;;;;;;;;;;5043519;28;20033;-53
2021/12/01 09:01:52;;;;;;;60.10;49.03;;;;;;;;;;5043530;28;20017;-46
2021/12/01 09:04:18;;;;;;;64.18;50.33;;;;;;;;;;5042798;28;20140;-49
2021/12/01 09:06:43;;;;;;;48.53;41.60;;;;;;;;;;5042877;28;20484;-46
2021/12/01 09:09:09;;;;;;;54.72;40.63;;;;;;;;;;5042446;28;20028;-47
2021/12/01 09:11:34;;;;;;;55.97;40.25;;;;;;;;;;5042563;28;20099;-50
2021/12/01 09:13:59;;;;;;;53.03;39.33;;;;;;;;;;5043775;28;20025;-49
2021/12/01 09:16:25;;;;;;;43.70;38.80;;;;;;;;;;5042905;28;20040;-49
2021/12/01 09:18:51;;;;;;;53.70;43.25;;;;;;;;;;5043051;28;20047;-47
2021/12/01 09:21:18;;;;;;;58.97;45.35;;;;;;;;;;5043954;28;20033;-49
2021/12/01 09:23:43;;;;;;;36.28;32.20;;;;;;;;;;5043202;28;20017;-49
2021/12/01 09:26:09;;;;;;;68.57;31.25;;;;;;;;;;5043744;28;20035;-47
2021/12/01 09:28:34;;;;;;;33.70;29.10;;;;;;;;;;5043619;28;20055;-50
2021/12/01 09:30:59;;;;;;;35.70;31.05;;;;;;;;;;5042994;28;20412;-47
2021/12/01 09:33:27;;;;;;;96.40;33.08;;;;;;;;;;5042637;28;20041;-49
2021/12/01 09:35:53;;;;;;;48.72;43.42;;;;;;;;;;5043409;28;20025;-45
2021/12/01 09:38:18;;;;;;;77.43;57.30;;;;;;;;;;5041713;28;20033;-49
2021/12/01 09:40:46;;;;;;;64.85;42.70;;;;;;;;;;5045266;28;20528;-47
2021/12/01 09:43:12;;;;;;;31.80;25.02;;;;;;;;;;5048790;28;20112;-48
2021/12/01 09:45:37;;;;;;;41.88;34.55;;;;;;;;;;5050027;28;20025;-51
2021/12/01 09:48:03;;;;;;;33.80;28.75;;;;;;;;;;5048900;28;20056;-53
2021/12/01 09:50:28;;;;;;;53.78;24.90;;;;;;;;;;5048565;28;20487;-49
2021/12/01 09:52:54;;;;;;;36.05;21.80;;;;;;;;;;5048380;28;20075;-47
2021/12/01 09:55:19;;;;;;;22.92;19.15;;;;;;;;;;5049013;28;20040;-45
2021/12/01 09:57:59;;;;;;;7.78;6.75;;;;;;;;;;5048543;28;20033;-49
2021/12/01 10:00:24;;;;;;;18.35;9.50;;;;;;;;;;5048408;28;20029;-46
2021/12/01 10:02:50;;;;;;;8.82;7.93;;;;;;;;;;5048957;28;20027;-45
2021/12/01 10:05:34;;;;;;;32.03;13.35;;;;;;;;;;5048748;28;20140;-48
2021/12/01 10:07:59;;;;;;;49.20;15.10;;;;;;;;;;5048067;28;20060;-48
2021/12/01 10:10:24;;;;;;;11.32;9.20;;;;;;;;;;5047044;28;20553;-51
2021/12/01 10:12:51;;;;;;;18.00;14.73;;;;;;;;;;5048783;28;20124;-48
2021/12/01 10:15:29;;;;;;;9.70;5.63;;;;;;;;;;5048562;28;20141;-48
2021/12/01 10:18:14;;;;;;;6.78;5.25;;;;;;;;;;5047740;28;20054;-49
2021/12/01 10:20:39;;;;;;;7.78;5.28;;;;;;;;;;5047799;28;20066;-46
2021/12/01 10:23:09;;;;;;;13.32;7.30;;;;;;;;;;5049250;28;20025;-47
2021/12/01 10:25:35;;;;;;;7.47;5.20;;;;;;;;;;5049371;28;20147;-46
2021/12/01 10:28:00;;;;;;;31.65;9.63;;;;;;;;;;5048520;28;20112;-47
2021/12/01 10:30:37;;;;;;;8.90;6.28;;;;;;;;;;5047957;28;20024;-52
2021/12/01 10:33:12;;;;;;;11.93;7.45;;;;;;;;;;5047576;28;20124;-47
2021/12/01 10:35:38;;;;;;;70.80;16.45;;;;;;;;;;5047273;28;20043;-50
2021/12/01 10:38:06;;;;;;;6.25;4.72;;;;;;;;;;5048268;28;20017;-44
2021/12/01 10:40:32;;;;;;;5.07;4.00;;;;;;;;;;5046472;28;20029;-48
2021/12/01 10:43:00;;;;;;;6.75;3.75;;;;;;;;;;5047595;28;20593;-50
2021/12/01 10:45:37;;;;;;;14.63;6.72;;;;;;;;;;5048139;28;20496;-50
2021/12/01 10:48:04;;;;;;;14.75;6.90;;;;;;;;;;5047582;28;20112;-50
2021/12/01 10:50:30;;;;;;;14.88;5.00;;;;;;;;;;5046930;28;20017;-46
2021/12/01 10:53:07;;;;;;;17.92;5.65;;;;;;;;;;5046846;28;20133;-47
2021/12/01 10:55:32;;;;;;;8.32;6.70;;;;;;;;;;5046957;28;20143;-50
2021/12/01 10:58:07;;;;;;;31.83;11.13;;;;;;;;;;5047193;28;20111;-48
2021/12/01 11:00:51;;;;;;;22.85;7.55;;;;;;;;;;5045599;28;20115;-48
2021/12/01 11:03:17;;;;;;;5.47;3.10;;;;;;;;;;5029338;28;20025;-47
2021/12/01 11:05:46;;;;;;;5.82;3.47;;;;;;;;;;5047100;28;20081;-49
2021/12/01 11:08:25;;;;;;;3.58;2.55;;;;;;;;;;5047743;28;20087;-49
2021/12/01 11:10:52;;;;;;;7.78;4.18;;;;;;;;;;5048281;28;20025;-48
2021/12/01 11:13:18;;;;;;;14.38;4.28;;;;;;;;;;5046585;28;20032;-50
2021/12/01 11:15:45;;;;;;;24.92;12.48;;;;;;;;;;5048038;28;20045;-52
2021/12/01 11:18:15;;;;;;;4.38;2.85;;;;;;;;;;5047410;28;20025;-53
2021/12/01 11:20:46;;;;;;;4.32;3.40;;;;;;;;;;5047536;28;20036;-52
2021/12/01 11:23:13;;;;;;;6.82;2.97;;;;;;;;;;5047587;28;20024;-47
2021/12/01 11:25:39;;;;;;;20.30;4.35;;;;;;;;;;5047917;28;20024;-47
2021/12/01 11:28:08;;;;;;;5.10;2.85;;;;;;;;;;5046871;28;20100;-47
2021/12/01 11:30:33;;;;;;;10.95;2.45;;;;;;;;;;5047654;28;20035;-47
2021/12/01 11:32:58;;;;;;;6.22;2.33;;;;;;;;;;5047530;28;20024;-47
2021/12/01 11:35:24;;;;;;;13.70;6.75;;;;;;;;;;5047937;28;20053;-50
2021/12/01 11:37:55;;;;;;;6.65;3.97;;;;;;;;;;5046838;28;20147;-50
2021/12/01 11:40:21;;;;;;;7.60;1.55;;;;;;;;;;5045565;28;20100;-50
2021/12/01 11:42:47;;;;;;;2.03;1.27;;;;;;;;;;5047149;28;20029;-51
2021/12/01 11:45:13;;;;;;;1.75;1.25;;;;;;;;;;5026942;28;20084;-51
2021/12/01 11:47:41;;;;;;;5.70;1.73;;;;;;;;;;5044650;28;20067;-49
2021/12/01 11:50:08;;;;;;;2.72;1.63;;;;;;;;;;5043649;28;20033;-52
2021/12/01 11:52:41;;;;;;;16.92;4.13;;;;;;;;;;5045737;28;20020;-53
2021/12/01 11:55:07;;;;;;;3.20;2.22;;;;;;;;;;5046819;28;20041;-51
2021/12/01 11:57:39;;;;;;;19.58;4.05;;;;;;;;;;5046436;28;20112;-51
2021/12/01 12:00:05;;;;;;;11.77;2.13;;;;;;;;;;5047315;28;20410;-53
2021/12/01 12:02:31;;;;;;;2.97;1.90;;;;;;;;;;5026204;28;20051;-50
2021/12/01 12:04:57;;;;;;;10.77;4.00;;;;;;;;;;5046506;28;20044;-50
2021/12/01 12:07:25;;;;;;;13.07;6.05;;;;;;;;;;5047169;28;20083;-53
2021/12/01 12:10:08;;;;;;;26.10;12.48;;;;;;;;;;5046736;28;20123;-49
2021/12/01 12:13:11;;;;;;;12.30;3.65;;;;;;;;;;5046479;28;20017;-48
2021/12/01 12:15:41;;;;;;;4.68;2.72;;;;;;;;;;4984014;28;20043;-50
2021/12/01 12:18:08;;;;;;;8.23;2.90;;;;;;;;;;4983793;28;20169;-54
2021/12/01 12:20:49;;;;;;;28.33;4.25;;;;;;;;;;5014149;28;20037;-50
2021/12/01 12:23:15;;;;;;;23.73;4.55;;;;;;;;;;5047068;28;20240;-51
2021/12/01 12:25:43;;;;;;;24.67;7.28;;;;;;;;;;5046899;28;20029;-53
2021/12/01 12:28:20;;;;;;;3.08;1.80;;;;;;;;;;5045731;28;20074;-51
2021/12/01 12:30:45;;;;;;;4.57;1.80;;;;;;;;;;5043947;28;20115;-51
2021/12/01 12:33:13;;;;;;;10.10;2.72;;;;;;;;;;5046416;28;20096;-51
2021/12/01 12:35:45;;;;;;;4.13;1.80;;;;;;;;;;5045249;28;20029;-53
2021/12/01 12:38:11;;;;;;;6.10;2.25;;;;;;;;;;5044672;28;20417;-49
2021/12/01 12:40:37;;;;;;;2.70;2.10;;;;;;;;;;5045108;28;20064;-53
2021/12/01 12:43:06;;;;;;;2.80;1.27;;;;;;;;;;5046289;28;20055;-49
2021/12/01 12:45:31;;;;;;;8.95;4.10;;;;;;;;;;5045279;28;20025;-52
2021/12/01 12:47:56;;;;;;;3.88;1.75;;;;;;;;;;5045539;28;20035;-50
2021/12/01 12:50:24;;;;;;;3.53;2.17;;;;;;;;;;5046106;28;20020;-53
2021/12/01 12:52:50;;;;;;;12.75;2.63;;;;;;;;;;5044855;28;20090;-51
2021/12/01 12:55:15;;;;;;;17.23;5.07;;;;;;;;;;5042708;28;20048;-54
2021/12/01 12:58:19;;;;;;;12.40;4.38;;;;;;;;;;5045640;28;20025;-51
2021/12/01 13:00:45;;;;;;;10.77;3.03;;;;;;;;;;4967565;28;20026;-53
2021/12/01 13:03:23;;;;;;;17.35;5.60;;;;;;;;;;4967282;28;20038;-54
2021/12/01 13:05:50;;;;;;;9.57;2.72;;;;;;;;;;5007785;28;20690;-53
2021/12/01 13:08:35;;;;;;;6.13;2.28;;;;;;;;;;5045508;28;20029;-53
2021/12/01 13:11:20;;;;;;;3.45;2.38;;;;;;;;;;5043068;28;20738;-55
2021/12/01 13:13:52;;;;;;;12.52;7.82;;;;;;;;;;5043238;28;20041;-55
2021/12/01 13:16:18;;;;;;;7.25;3.65;;;;;;;;;;5043794;28;20075;-55
2021/12/01 13:18:45;;;;;;;10.93;6.90;;;;;;;;;;5045235;28;20082;-53
2021/12/01 13:21:21;;;;;;;11.63;4.55;;;;;;;;;;5045309;28;20025;-51
2021/12/01 13:23:51;;;;;;;7.80;3.13;;;;;;;;;;5045126;28;20021;-49
2021/12/01 13:26:26;;;;;;;7.82;3.80;;;;;;;;;;5046291;28;20027;-48
2021/12/01 13:28:53;;;;;;;5.95;2.40;;;;;;;;;;5043775;28;20059;-52
2021/12/01 13:31:22;;;;;;;5.38;3.78;;;;;;;;;;5044474;28;20056;-49
2021/12/01 13:33:53;;;;;;;7.63;4.18;;;;;;;;;;5045311;28;20025;-54
2021/12/01 13:36:18;;;;;;;6.32;3.90;;;;;;;;;;5044833;28;20029;-46
2021/12/01 13:38:44;;;;;;;6.10;3.15;;;;;;;;;;5044309;28;20430;-44
2021/12/01 13:41:13;;;;;;;3.22;2.10;;;;;;;;;;5043973;28;20468;-48
2021/12/01 13:43:39;;;;;;;2.67;1.98;;;;;;;;;;5044825;28;20141;-53
2021/12/01 13:46:05;;;;;;;6.18;2.30;;;;;;;;;;5044963;28;20540;-46
2021/12/01 13:48:30;;;;;;;3.92;2.45;;;;;;;;;;5043391;28;20021;-49
2021/12/01 13:51:13;;;;;;;5.53;3.28;;;;;;;;;;5044922;28;20056;-59
2021/12/01 13:53:38;;;;;;;4.82;2.30;;;;;;;;;;5042563;28;20027;-43
2021/12/01 13:56:08;;;;;;;8.38;4.28;;;;;;;;;;5042231;28;20105;-43
2021/12/01 13:58:33;;;;;;;5.47;3.85;;;;;;;;;;5044712;28;20025;-47
2021/12/01 14:01:03;;;;;;;3.53;2.00;;;;;;;;;;5042542;28;20501;-57
2021/12/01 14:03:28;;;;;;;2.85;1.85;;;;;;;;;;5042880;28;20029;-56
2021/12/01 14:05:54;;;;;;;1.75;1.55;;;;;;;;;;5045032;28;20075;-57
2021/12/01 14:08:42;;;;;;;6.07;3.58;;;;;;;;;;5044927;28;20053;-57
2021/12/01 14:11:11;;;;;;;4.95;2.60;;;;;;;;;;5036833;28;20033;-57
2021/12/01 14:13:37;;;;;;;9.52;2.00;;;;;;;;;;5043929;28;20025;-57
2021/12/01 14:16:02;;;;;;;5.90;4.30;;;;;;;;;;5045063;28;20119;-57
2021/12/01 14:18:29;;;;;;;5.22;2.80;;;;;;;;;;5045128;28;20033;-57
2021/12/01 14:21:11;;;;;;;4.85;2.75;;;;;;;;;;5043886;28;20086;-57
2021/12/01 14:23:37;;;;;;;9.10;4.10;;;;;;;;;;5045523;28;20024;-57
2021/12/01 14:26:02;;;;;;;10.32;2.97;;;;;;;;;;5044773;28;20031;-56
2021/12/01 14:28:32;;;;;;;8.43;2.45;;;;;;;;;;5047824;28;20125;-57
2021/12/01 14:31:02;;;;;;;3.72;2.63;;;;;;;;;;5047623;28;20029;-57
2021/12/01 14:33:30;;;;;;;10.50;5.93;;;;;;;;;;5043844;28;20025;-57
2021/12/01 14:36:00;;;;;;;2.78;1.75;;;;;;;;;;5045572;28;20124;-57
2021/12/01 14:38:25;;;;;;;2.33;1.95;;;;;;;;;;5046507;28;20024;-57